Airfield :
LOGIN :

Register | Disclaimer

   EN    FR    IT 

 










Legend :    VFR   Marginal VFR   IFR   Intensive IFR   Very Intensive IFR
Visi :
Ceiling :
>= 8 km
>= 3000ft
5 to 8 km
1000 to 3000 ft
1500m to 5 km
500 to 1000 ft
800 to 1500m
200 to 500 ft
< 800m
< 200 ft
Symbols :   Thunderstorms  Fog  Heavy snow  Heavy precipitations  Wind > 20 kt
SIGMETs :     Misc.  Thunderstorms  Icing  Turbulence  Mountain Waves  Volcanic Ashes






- Airport Elevation : 348 ft
- IATA code : STN


EGSS - London Stansted

CURRENT METAR :
  • 101050Z AUTO 07013KT 9999 SCT030 BKN038 BKN044 08/01 Q1013

EXPIRED METARs :
  • 101020Z AUTO 09013KT 9999 SCT027 BKN034 BKN040 08/01 Q1013
  • 100950Z AUTO 07012KT 9999 FEW022 SCT026 BKN035 08/02 Q1014
  • 100920Z AUTO 08011KT 050V110 9999 BKN018 BKN029 07/02 Q1014
  • 100850Z AUTO 06010KT 9999 BKN013 BKN019 07/03 Q1014
  • 100820Z AUTO 06009KT 9999 BKN010 BKN017 06/03 Q1014

TAF TAF EGSS
Valid from the 10 at 06:00 until the 11 at 12:00 UTC


100504Z 1006/1112 04008KT 9999 SCT022
TEMPO 1006/1017 8000 -RA
PROB40
TEMPO 1006/1017 BKN009
PROB30
TEMPO 1009/1016 SHRA
BECMG 1109/1112 34010KT
ATIS : +44 1279 669 325



MET'MAP, your aeronautical weather chart ! - Copyright ORBIFLY December 2007 - Disclaimer

ORBIFLY MET'MAP TEAM :

Programming & Development : Alexandra Zaïnal
Concept & original design : Baudouin d'Aumeries
Assistance for programming : Marc-Olivier Méhu
Technical & hardware support : Manuel Goepfert

Contact : metmap@orbifly.com




SOURCES & CREDITS :

   NOAA